sensor_id;sensor_type;location;lat;lon;timestamp;temperature;humidity
1592;DHT22;789;51.612;7.510;2023-02-15T00:01:07;6.50;1.00
1592;DHT22;789;51.612;7.510;2023-02-15T00:03:35;6.40;1.00
1592;DHT22;789;51.612;7.510;2023-02-15T00:06:02;6.30;1.00
1592;DHT22;789;51.612;7.510;2023-02-15T00:08:29;6.20;1.00
1592;DHT22;789;51.612;7.510;2023-02-15T00:11:04;6.20;1.00
1592;DHT22;789;51.612;7.510;2023-02-15T00:13:31;6.20;1.00
1592;DHT22;789;51.612;7.510;2023-02-15T00:16:01;6.20;1.00
1592;DHT22;789;51.612;7.510;2023-02-15T00:18:28;6.20;1.00
1592;DHT22;789;51.612;7.510;2023-02-15T00:20:56;6.20;1.00
1592;DHT22;789;51.612;7.510;2023-02-15T00:23:23;6.20;1.00
1592;DHT22;789;51.612;7.510;2023-02-15T00:25:49;6.20;1.00
1592;DHT22;789;51.612;7.510;2023-02-15T00:28:16;6.20;1.00
1592;DHT22;789;51.612;7.510;2023-02-15T00:30:43;6.20;1.00
1592;DHT22;789;51.612;7.510;2023-02-15T00:33:09;6.20;1.00
1592;DHT22;789;51.612;7.510;2023-02-15T00:35:36;6.20;1.00
1592;DHT22;789;51.612;7.510;2023-02-15T00:38:04;6.20;1.00
1592;DHT22;789;51.612;7.510;2023-02-15T00:40:31;6.20;1.00
1592;DHT22;789;51.612;7.510;2023-02-15T00:42:57;6.10;1.00
1592;DHT22;789;51.612;7.510;2023-02-15T00:45:25;6.10;1.00
1592;DHT22;789;51.612;7.510;2023-02-15T00:47:51;6.10;1.00
1592;DHT22;789;51.612;7.510;2023-02-15T00:50:18;6.10;1.00
1592;DHT22;789;51.612;7.510;2023-02-15T00:52:45;6.00;1.00
1592;DHT22;789;51.612;7.510;2023-02-15T00:55:13;6.00;1.00
1592;DHT22;789;51.612;7.510;2023-02-15T00:57:39;5.90;1.00
1592;DHT22;789;51.612;7.510;2023-02-15T01:00:07;5.90;1.00
1592;DHT22;789;51.612;7.510;2023-02-15T01:02:34;5.90;1.00
1592;DHT22;789;51.612;7.510;2023-02-15T01:05:00;5.90;1.00
1592;DHT22;789;51.612;7.510;2023-02-15T01:07:27;5.90;1.00
1592;DHT22;789;51.612;7.510;2023-02-15T01:09:54;5.90;1.00
1592;DHT22;789;51.612;7.510;2023-02-15T01:12:22;5.80;1.00
1592;DHT22;789;51.612;7.510;2023-02-15T01:14:49;5.80;1.00
1592;DHT22;789;51.612;7.510;2023-02-15T01:17:15;5.80;1.00
1592;DHT22;789;51.612;7.510;2023-02-15T01:19:42;5.70;1.00
1592;DHT22;789;51.612;7.510;2023-02-15T01:22:09;5.70;1.00
1592;DHT22;789;51.612;7.510;2023-02-15T01:24:35;5.70;1.00
1592;DHT22;789;51.612;7.510;2023-02-15T01:27:02;5.70;1.00
1592;DHT22;789;51.612;7.510;2023-02-15T01:29:31;5.70;1.00
1592;DHT22;789;51.612;7.510;2023-02-15T01:31:57;5.60;1.00
1592;DHT22;789;51.612;7.510;2023-02-15T01:34:24;5.50;1.00
1592;DHT22;789;51.612;7.510;2023-02-15T01:36:51;5.50;1.00
1592;DHT22;789;51.612;7.510;2023-02-15T01:39:17;5.40;1.00
1592;DHT22;789;51.612;7.510;2023-02-15T01:41:44;5.40;1.00
1592;DHT22;789;51.612;7.510;2023-02-15T01:44:50;5.40;1.00
1592;DHT22;789;51.612;7.510;2023-02-15T01:47:21;5.40;1.00
1592;DHT22;789;51.612;7.510;2023-02-15T01:49:54;5.40;1.00
1592;DHT22;789;51.612;7.510;2023-02-15T01:52:23;5.40;1.00
1592;DHT22;789;51.612;7.510;2023-02-15T01:54:50;5.30;1.00
1592;DHT22;789;51.612;7.510;2023-02-15T01:57:21;5.30;1.00
1592;DHT22;789;51.612;7.510;2023-02-15T01:59:56;5.30;1.00
1592;DHT22;789;51.612;7.510;2023-02-15T02:02:25;5.30;1.00
1592;DHT22;789;51.612;7.510;2023-02-15T02:04:54;5.30;1.00
1592;DHT22;789;51.612;7.510;2023-02-15T02:07:27;5.20;1.00
1592;DHT22;789;51.612;7.510;2023-02-15T02:09:54;5.30;1.00
1592;DHT22;789;51.612;7.510;2023-02-15T02:12:21;5.20;1.00
1592;DHT22;789;51.612;7.510;2023-02-15T02:14:51;5.20;1.00
1592;DHT22;789;51.612;7.510;2023-02-15T02:17:24;5.00;1.00
1592;DHT22;789;51.612;7.510;2023-02-15T02:20:26;5.00;1.00
1592;DHT22;789;51.612;7.510;2023-02-15T02:23:16;5.00;1.00
1592;DHT22;789;51.612;7.510;2023-02-15T02:32:01;5.00;1.00
1592;DHT22;789;51.612;7.510;2023-02-15T02:34:37;5.00;1.00
1592;DHT22;789;51.612;7.510;2023-02-15T02:37:22;5.00;1.00
1592;DHT22;789;51.612;7.510;2023-02-15T02:39:55;5.00;1.00
1592;DHT22;789;51.612;7.510;2023-02-15T02:42:27;5.00;1.00
1592;DHT22;789;51.612;7.510;2023-02-15T02:45:02;5.00;1.00
1592;DHT22;789;51.612;7.510;2023-02-15T02:47:32;5.00;1.00
1592;DHT22;789;51.612;7.510;2023-02-15T02:50:02;5.00;1.00
1592;DHT22;789;51.612;7.510;2023-02-15T02:52:38;5.00;1.00
1592;DHT22;789;51.612;7.510;2023-02-15T02:55:10;5.00;1.00
1592;DHT22;789;51.612;7.510;2023-02-15T02:57:44;4.90;1.00
1592;DHT22;789;51.612;7.510;2023-02-15T03:00:14;4.90;1.00
1592;DHT22;789;51.612;7.510;2023-02-15T03:02:44;4.90;1.00
1592;DHT22;789;51.612;7.510;2023-02-15T03:05:15;4.90;1.00
1592;DHT22;789;51.612;7.510;2023-02-15T03:07:45;4.80;1.00
1592;DHT22;789;51.612;7.510;2023-02-15T03:10:13;4.80;1.00
1592;DHT22;789;51.612;7.510;2023-02-15T03:12:41;4.80;1.00
1592;DHT22;789;51.612;7.510;2023-02-15T03:15:10;4.80;1.00
1592;DHT22;789;51.612;7.510;2023-02-15T03:17:41;4.80;1.00
1592;DHT22;789;51.612;7.510;2023-02-15T03:20:13;4.80;1.00
1592;DHT22;789;51.612;7.510;2023-02-15T03:22:46;4.80;1.00
1592;DHT22;789;51.612;7.510;2023-02-15T03:25:17;4.80;1.00
1592;DHT22;789;51.612;7.510;2023-02-15T03:27:47;4.70;1.00
1592;DHT22;789;51.612;7.510;2023-02-15T03:30:18;4.70;1.00
1592;DHT22;789;51.612;7.510;2023-02-15T03:32:47;4.70;1.00
1592;DHT22;789;51.612;7.510;2023-02-15T03:35:16;4.70;1.00
1592;DHT22;789;51.612;7.510;2023-02-15T03:37:48;4.60;1.00
1592;DHT22;789;51.612;7.510;2023-02-15T03:40:20;4.60;1.00
1592;DHT22;789;51.612;7.510;2023-02-15T03:43:11;4.60;1.00
1592;DHT22;789;51.612;7.510;2023-02-15T03:45:40;4.60;1.00
1592;DHT22;789;51.612;7.510;2023-02-15T03:48:21;4.50;1.00
1592;DHT22;789;51.612;7.510;2023-02-15T03:50:51;4.50;1.00
1592;DHT22;789;51.612;7.510;2023-02-15T03:53:50;4.50;1.00
1592;DHT22;789;51.612;7.510;2023-02-15T03:56:18;4.40;1.00
1592;DHT22;789;51.612;7.510;2023-02-15T03:58:45;4.40;1.00
1592;DHT22;789;51.612;7.510;2023-02-15T04:01:34;4.40;1.00
1592;DHT22;789;51.612;7.510;2023-02-15T04:04:21;4.30;1.00
1592;DHT22;789;51.612;7.510;2023-02-15T04:06:49;4.30;1.00
1592;DHT22;789;51.612;7.510;2023-02-15T04:09:16;4.30;1.00
1592;DHT22;789;51.612;7.510;2023-02-15T04:12:00;4.30;1.00
1592;DHT22;789;51.612;7.510;2023-02-15T04:14:27;4.30;1.00
1592;DHT22;789;51.612;7.510;2023-02-15T04:17:11;4.20;1.00
1592;DHT22;789;51.612;7.510;2023-02-15T04:19:38;4.20;1.00
1592;DHT22;789;51.612;7.510;2023-02-15T04:22:23;4.20;1.00
1592;DHT22;789;51.612;7.510;2023-02-15T04:25:07;4.20;1.00
1592;DHT22;789;51.612;7.510;2023-02-15T04:27:38;4.20;1.00
1592;DHT22;789;51.612;7.510;2023-02-15T04:30:06;4.20;1.00
1592;DHT22;789;51.612;7.510;2023-02-15T04:32:33;4.10;1.00
1592;DHT22;789;51.612;7.510;2023-02-15T04:34:59;4.10;1.00
1592;DHT22;789;51.612;7.510;2023-02-15T04:37:27;4.10;1.00
1592;DHT22;789;51.612;7.510;2023-02-15T04:39:54;4.10;1.00
1592;DHT22;789;51.612;7.510;2023-02-15T04:42:23;4.10;1.00
1592;DHT22;789;51.612;7.510;2023-02-15T04:44:50;4.10;1.00
1592;DHT22;789;51.612;7.510;2023-02-15T04:47:22;4.00;1.00
1592;DHT22;789;51.612;7.510;2023-02-15T04:49:49;3.90;1.00
1592;DHT22;789;51.612;7.510;2023-02-15T04:52:16;3.90;1.00
1592;DHT22;789;51.612;7.510;2023-02-15T04:54:45;3.90;1.00
1592;DHT22;789;51.612;7.510;2023-02-15T04:57:11;3.90;1.00
1592;DHT22;789;51.612;7.510;2023-02-15T04:59:38;3.90;1.00
1592;DHT22;789;51.612;7.510;2023-02-15T05:02:05;3.90;1.00
1592;DHT22;789;51.612;7.510;2023-02-15T05:04:32;3.80;1.00
1592;DHT22;789;51.612;7.510;2023-02-15T05:06:58;3.80;1.00
1592;DHT22;789;51.612;7.510;2023-02-15T05:09:25;3.80;1.00
1592;DHT22;789;51.612;7.510;2023-02-15T05:11:53;3.80;1.00
1592;DHT22;789;51.612;7.510;2023-02-15T05:14:20;3.80;1.00
1592;DHT22;789;51.612;7.510;2023-02-15T05:16:47;3.80;1.00
1592;DHT22;789;51.612;7.510;2023-02-15T05:19:13;3.80;1.00
1592;DHT22;789;51.612;7.510;2023-02-15T05:21:40;3.90;1.00
1592;DHT22;789;51.612;7.510;2023-02-15T05:24:07;3.90;1.00
1592;DHT22;789;51.612;7.510;2023-02-15T05:26:47;3.90;1.00
1592;DHT22;789;51.612;7.510;2023-02-15T05:29:33;3.90;1.00
1592;DHT22;789;51.612;7.510;2023-02-15T05:31:59;3.90;1.00
1592;DHT22;789;51.612;7.510;2023-02-15T05:34:27;3.90;1.00
1592;DHT22;789;51.612;7.510;2023-02-15T05:36:54;3.90;1.00
1592;DHT22;789;51.612;7.510;2023-02-15T05:39:21;3.90;1.00
1592;DHT22;789;51.612;7.510;2023-02-15T05:41:47;3.90;1.00
1592;DHT22;789;51.612;7.510;2023-02-15T05:44:14;3.90;1.00
1592;DHT22;789;51.612;7.510;2023-02-15T05:46:42;3.90;1.00
1592;DHT22;789;51.612;7.510;2023-02-15T05:49:09;3.80;1.00
1592;DHT22;789;51.612;7.510;2023-02-15T05:51:35;3.80;1.00
1592;DHT22;789;51.612;7.510;2023-02-15T05:54:02;3.80;1.00
1592;DHT22;789;51.612;7.510;2023-02-15T05:56:29;3.80;1.00
1592;DHT22;789;51.612;7.510;2023-02-15T05:58:55;3.80;1.00
1592;DHT22;789;51.612;7.510;2023-02-15T06:01:22;3.70;1.00
1592;DHT22;789;51.612;7.510;2023-02-15T06:03:50;3.80;1.00
1592;DHT22;789;51.612;7.510;2023-02-15T06:06:17;3.80;1.00
1592;DHT22;789;51.612;7.510;2023-02-15T06:08:44;3.80;1.00
1592;DHT22;789;51.612;7.510;2023-02-15T06:11:11;3.80;1.00
1592;DHT22;789;51.612;7.510;2023-02-15T06:16:13;3.90;1.00
1592;DHT22;789;51.612;7.510;2023-02-15T06:18:41;3.80;1.00
1592;DHT22;789;51.612;7.510;2023-02-15T06:21:09;3.80;1.00
1592;DHT22;789;51.612;7.510;2023-02-15T06:23:36;3.80;1.00
1592;DHT22;789;51.612;7.510;2023-02-15T06:26:03;3.80;1.00
1592;DHT22;789;51.612;7.510;2023-02-15T06:28:30;3.80;1.00
1592;DHT22;789;51.612;7.510;2023-02-15T06:30:56;3.80;1.00
1592;DHT22;789;51.612;7.510;2023-02-15T06:33:23;3.80;1.00
1592;DHT22;789;51.612;7.510;2023-02-15T06:35:50;3.80;1.00
1592;DHT22;789;51.612;7.510;2023-02-15T06:38:18;3.80;1.00
1592;DHT22;789;51.612;7.510;2023-02-15T06:40:45;3.80;1.00
1592;DHT22;789;51.612;7.510;2023-02-15T06:43:11;3.80;1.00
1592;DHT22;789;51.612;7.510;2023-02-15T06:45:38;3.80;1.00
1592;DHT22;789;51.612;7.510;2023-02-15T06:48:05;3.80;1.00
1592;DHT22;789;51.612;7.510;2023-02-15T06:50:32;3.80;1.00
1592;DHT22;789;51.612;7.510;2023-02-15T06:52:59;3.80;1.00
1592;DHT22;789;51.612;7.510;2023-02-15T06:55:27;3.80;1.00
1592;DHT22;789;51.612;7.510;2023-02-15T06:57:53;3.80;1.00
1592;DHT22;789;51.612;7.510;2023-02-15T07:00:21;3.80;1.00
1592;DHT22;789;51.612;7.510;2023-02-15T07:02:53;3.80;1.00
1592;DHT22;789;51.612;7.510;2023-02-15T07:05:21;3.80;1.00
1592;DHT22;789;51.612;7.510;2023-02-15T07:07:48;3.80;1.00
1592;DHT22;789;51.612;7.510;2023-02-15T07:10:15;3.90;1.00
1592;DHT22;789;51.612;7.510;2023-02-15T07:12:43;3.90;1.00
1592;DHT22;789;51.612;7.510;2023-02-15T07:15:12;3.90;1.00
1592;DHT22;789;51.612;7.510;2023-02-15T07:17:40;4.00;1.00
1592;DHT22;789;51.612;7.510;2023-02-15T07:20:10;4.10;1.00
1592;DHT22;789;51.612;7.510;2023-02-15T07:22:37;4.10;1.00
1592;DHT22;789;51.612;7.510;2023-02-15T07:25:04;4.20;1.00
1592;DHT22;789;51.612;7.510;2023-02-15T07:27:31;4.20;1.00
1592;DHT22;789;51.612;7.510;2023-02-15T07:30:00;4.30;1.00
1592;DHT22;789;51.612;7.510;2023-02-15T07:32:28;4.30;1.00
1592;DHT22;789;51.612;7.510;2023-02-15T07:34:55;4.40;1.00
1592;DHT22;789;51.612;7.510;2023-02-15T07:37:22;4.50;1.00
1592;DHT22;789;51.612;7.510;2023-02-15T07:39:49;4.50;1.00
1592;DHT22;789;51.612;7.510;2023-02-15T07:42:15;4.70;1.00
1592;DHT22;789;51.612;7.510;2023-02-15T07:44:43;4.80;1.00
1592;DHT22;789;51.612;7.510;2023-02-15T07:47:11;4.90;1.00
1592;DHT22;789;51.612;7.510;2023-02-15T07:49:38;5.20;1.00
1592;DHT22;789;51.612;7.510;2023-02-15T07:52:05;5.80;1.00
1592;DHT22;789;51.612;7.510;2023-02-15T07:54:31;6.50;1.00
1592;DHT22;789;51.612;7.510;2023-02-15T07:56:58;7.40;1.00
1592;DHT22;789;51.612;7.510;2023-02-15T07:59:26;8.40;1.00
1592;DHT22;789;51.612;7.510;2023-02-15T08:01:53;9.40;1.00
1592;DHT22;789;51.612;7.510;2023-02-15T08:04:23;10.20;1.00
1592;DHT22;789;51.612;7.510;2023-02-15T08:06:52;10.90;1.00
1592;DHT22;789;51.612;7.510;2023-02-15T08:09:19;11.70;1.00
1592;DHT22;789;51.612;7.510;2023-02-15T08:11:47;12.50;1.00
1592;DHT22;789;51.612;7.510;2023-02-15T08:14:15;13.30;1.00
1592;DHT22;789;51.612;7.510;2023-02-15T08:16:43;14.10;1.00
1592;DHT22;789;51.612;7.510;2023-02-15T08:19:11;15.00;1.00
1592;DHT22;789;51.612;7.510;2023-02-15T08:21:41;15.80;1.00
1592;DHT22;789;51.612;7.510;2023-02-15T08:24:10;16.50;1.00
1592;DHT22;789;51.612;7.510;2023-02-15T08:26:38;17.20;1.00
1592;DHT22;789;51.612;7.510;2023-02-15T08:29:06;17.80;1.00
1592;DHT22;789;51.612;7.510;2023-02-15T08:31:34;18.30;1.00
1592;DHT22;789;51.612;7.510;2023-02-15T08:34:00;18.90;1.00
1592;DHT22;789;51.612;7.510;2023-02-15T08:36:30;19.30;1.00
1592;DHT22;789;51.612;7.510;2023-02-15T08:38:59;19.80;1.00
1592;DHT22;789;51.612;7.510;2023-02-15T08:41:28;20.40;1.00
1592;DHT22;789;51.612;7.510;2023-02-15T08:43:57;20.90;1.00
1592;DHT22;789;51.612;7.510;2023-02-15T08:46:26;21.20;1.00
1592;DHT22;789;51.612;7.510;2023-02-15T08:48:53;21.50;1.00
1592;DHT22;789;51.612;7.510;2023-02-15T08:51:21;21.90;1.00
1592;DHT22;789;51.612;7.510;2023-02-15T08:53:50;22.40;1.00
1592;DHT22;789;51.612;7.510;2023-02-15T08:56:20;23.00;1.00
1592;DHT22;789;51.612;7.510;2023-02-15T08:58:47;23.50;1.00
1592;DHT22;789;51.612;7.510;2023-02-15T09:01:15;24.20;1.00
1592;DHT22;789;51.612;7.510;2023-02-15T09:03:44;24.90;1.00
1592;DHT22;789;51.612;7.510;2023-02-15T09:06:11;25.50;1.00
1592;DHT22;789;51.612;7.510;2023-02-15T09:08:38;26.00;1.00
1592;DHT22;789;51.612;7.510;2023-02-15T09:11:09;26.30;1.00
1592;DHT22;789;51.612;7.510;2023-02-15T09:13:39;26.60;1.00
1592;DHT22;789;51.612;7.510;2023-02-15T09:16:08;26.90;1.00
1592;DHT22;789;51.612;7.510;2023-02-15T09:18:37;27.30;1.00
1592;DHT22;789;51.612;7.510;2023-02-15T09:21:05;27.80;1.00
1592;DHT22;789;51.612;7.510;2023-02-15T09:23:33;28.00;1.00
1592;DHT22;789;51.612;7.510;2023-02-15T09:26:03;28.30;1.00
1592;DHT22;789;51.612;7.510;2023-02-15T09:28:30;28.70;1.00
1592;DHT22;789;51.612;7.510;2023-02-15T09:31:06;29.00;1.00
1592;DHT22;789;51.612;7.510;2023-02-15T09:33:33;29.10;1.00
1592;DHT22;789;51.612;7.510;2023-02-15T09:36:01;29.50;1.00
1592;DHT22;789;51.612;7.510;2023-02-15T09:38:28;29.80;1.00
1592;DHT22;789;51.612;7.510;2023-02-15T09:41:05;30.10;1.00
1592;DHT22;789;51.612;7.510;2023-02-15T09:43:37;30.50;1.00
1592;DHT22;789;51.612;7.510;2023-02-15T09:46:26;30.50;1.00
1592;DHT22;789;51.612;7.510;2023-02-15T09:48:58;30.50;1.00
1592;DHT22;789;51.612;7.510;2023-02-15T09:51:54;30.50;1.00
1592;DHT22;789;51.612;7.510;2023-02-15T09:54:36;30.60;1.00
1592;DHT22;789;51.612;7.510;2023-02-15T09:57:13;30.90;1.00
1592;DHT22;789;51.612;7.510;2023-02-15T09:59:52;31.10;1.00
1592;DHT22;789;51.612;7.510;2023-02-15T10:02:38;31.20;1.00
1592;DHT22;789;51.612;7.510;2023-02-15T10:05:15;31.10;1.00
1592;DHT22;789;51.612;7.510;2023-02-15T10:08:08;31.50;1.00
1592;DHT22;789;51.612;7.510;2023-02-15T10:10:41;31.70;1.00
1592;DHT22;789;51.612;7.510;2023-02-15T10:13:21;32.20;1.00
1592;DHT22;789;51.612;7.510;2023-02-15T10:16:03;32.50;1.00
1592;DHT22;789;51.612;7.510;2023-02-15T10:18:48;31.90;1.00
1592;DHT22;789;51.612;7.510;2023-02-15T10:21:27;31.30;1.00
1592;DHT22;789;51.612;7.510;2023-02-15T10:24:18;30.80;1.00
1592;DHT22;789;51.612;7.510;2023-02-15T10:26:47;31.10;1.00
1592;DHT22;789;51.612;7.510;2023-02-15T10:29:24;31.10;1.00
1592;DHT22;789;51.612;7.510;2023-02-15T10:32:01;30.60;1.00
1592;DHT22;789;51.612;7.510;2023-02-15T10:34:37;30.30;1.00
1592;DHT22;789;51.612;7.510;2023-02-15T10:37:26;30.60;1.00
1592;DHT22;789;51.612;7.510;2023-02-15T10:40:04;30.90;1.00
1592;DHT22;789;51.612;7.510;2023-02-15T10:42:42;31.10;1.00
1592;DHT22;789;51.612;7.510;2023-02-15T10:45:20;31.40;1.00
1592;DHT22;789;51.612;7.510;2023-02-15T10:47:58;31.80;1.00
1592;DHT22;789;51.612;7.510;2023-02-15T10:50:43;32.10;1.00
1592;DHT22;789;51.612;7.510;2023-02-15T10:53:28;32.70;1.00
1592;DHT22;789;51.612;7.510;2023-02-15T10:56:06;33.50;1.00
1592;DHT22;789;51.612;7.510;2023-02-15T10:58:47;34.60;1.00
1592;DHT22;789;51.612;7.510;2023-02-15T11:01:22;35.40;1.00
1592;DHT22;789;51.612;7.510;2023-02-15T11:04:18;35.90;1.00
1592;DHT22;789;51.612;7.510;2023-02-15T11:06:53;36.10;1.00
1592;DHT22;789;51.612;7.510;2023-02-15T11:09:23;36.50;1.00
1592;DHT22;789;51.612;7.510;2023-02-15T11:11:53;37.00;1.00
1592;DHT22;789;51.612;7.510;2023-02-15T11:14:31;37.30;1.00
1592;DHT22;789;51.612;7.510;2023-02-15T11:17:05;37.10;1.00
1592;DHT22;789;51.612;7.510;2023-02-15T11:19:36;36.90;1.00
1592;DHT22;789;51.612;7.510;2023-02-15T11:22:06;35.80;1.00
1592;DHT22;789;51.612;7.510;2023-02-15T11:24:39;35.00;1.00
1592;DHT22;789;51.612;7.510;2023-02-15T11:27:17;34.10;1.00
1592;DHT22;789;51.612;7.510;2023-02-15T11:29:52;33.10;1.00
1592;DHT22;789;51.612;7.510;2023-02-15T11:32:24;32.00;1.00
1592;DHT22;789;51.612;7.510;2023-02-15T11:34:55;31.30;1.00
1592;DHT22;789;51.612;7.510;2023-02-15T11:37:30;30.70;1.00
1592;DHT22;789;51.612;7.510;2023-02-15T11:39:57;30.20;1.00
1592;DHT22;789;51.612;7.510;2023-02-15T11:42:26;28.90;1.00
1592;DHT22;789;51.612;7.510;2023-02-15T11:44:59;28.00;1.00
1592;DHT22;789;51.612;7.510;2023-02-15T11:47:28;27.30;1.00
1592;DHT22;789;51.612;7.510;2023-02-15T11:49:56;26.70;1.00
1592;DHT22;789;51.612;7.510;2023-02-15T11:52:23;26.60;1.00
1592;DHT22;789;51.612;7.510;2023-02-15T11:54:52;27.00;1.00
1592;DHT22;789;51.612;7.510;2023-02-15T11:57:23;27.40;1.00
1592;DHT22;789;51.612;7.510;2023-02-15T11:59:57;27.80;1.00
1592;DHT22;789;51.612;7.510;2023-02-15T12:02:24;28.30;1.00
1592;DHT22;789;51.612;7.510;2023-02-15T12:04:55;28.80;1.00
1592;DHT22;789;51.612;7.510;2023-02-15T12:07:25;29.90;1.00
1592;DHT22;789;51.612;7.510;2023-02-15T12:09:59;31.20;1.00
1592;DHT22;789;51.612;7.510;2023-02-15T12:12:28;31.70;1.00
1592;DHT22;789;51.612;7.510;2023-02-15T12:14:57;32.00;1.00
1592;DHT22;789;51.612;7.510;2023-02-15T12:17:26;32.30;1.00
1592;DHT22;789;51.612;7.510;2023-02-15T12:19:55;32.20;1.00
1592;DHT22;789;51.612;7.510;2023-02-15T12:22:25;31.80;1.00
1592;DHT22;789;51.612;7.510;2023-02-15T12:24:56;30.00;1.00
1592;DHT22;789;51.612;7.510;2023-02-15T12:27:26;28.20;1.00
1592;DHT22;789;51.612;7.510;2023-02-15T12:29:57;27.60;1.00
1592;DHT22;789;51.612;7.510;2023-02-15T12:32:28;27.20;1.00
1592;DHT22;789;51.612;7.510;2023-02-15T12:35:00;27.20;1.00
1592;DHT22;789;51.612;7.510;2023-02-15T12:37:29;27.80;1.00
1592;DHT22;789;51.612;7.510;2023-02-15T12:39:59;28.40;1.00
1592;DHT22;789;51.612;7.510;2023-02-15T12:42:28;28.40;1.00
1592;DHT22;789;51.612;7.510;2023-02-15T12:45:22;27.70;1.00
1592;DHT22;789;51.612;7.510;2023-02-15T12:48:09;27.60;1.00
1592;DHT22;789;51.612;7.510;2023-02-15T12:50:36;27.40;1.00
1592;DHT22;789;51.612;7.510;2023-02-15T12:53:12;27.00;1.00
1592;DHT22;789;51.612;7.510;2023-02-15T12:55:50;26.70;1.00
1592;DHT22;789;51.612;7.510;2023-02-15T12:58:22;26.50;1.00
1592;DHT22;789;51.612;7.510;2023-02-15T13:01:09;25.70;1.00
1592;DHT22;789;51.612;7.510;2023-02-15T13:03:38;24.90;1.00
1592;DHT22;789;51.612;7.510;2023-02-15T13:06:05;23.90;1.00
1592;DHT22;789;51.612;7.510;2023-02-15T13:08:34;23.30;1.00
1592;DHT22;789;51.612;7.510;2023-02-15T13:11:06;22.90;1.00
1592;DHT22;789;51.612;7.510;2023-02-15T13:13:38;22.50;1.00
1592;DHT22;789;51.612;7.510;2023-02-15T13:16:14;22.20;1.00
1592;DHT22;789;51.612;7.510;2023-02-15T13:18:43;21.70;1.00
1592;DHT22;789;51.612;7.510;2023-02-15T13:21:13;21.60;1.00
1592;DHT22;789;51.612;7.510;2023-02-15T13:23:43;21.50;1.00
1592;DHT22;789;51.612;7.510;2023-02-15T13:26:15;21.40;1.00
1592;DHT22;789;51.612;7.510;2023-02-15T13:28:46;21.20;1.00
1592;DHT22;789;51.612;7.510;2023-02-15T13:31:15;20.90;1.00
1592;DHT22;789;51.612;7.510;2023-02-15T13:33:46;20.40;1.00
1592;DHT22;789;51.612;7.510;2023-02-15T13:36:21;20.10;1.00
1592;DHT22;789;51.612;7.510;2023-02-15T13:38:56;19.80;1.00
1592;DHT22;789;51.612;7.510;2023-02-15T13:41:30;19.50;1.00
1592;DHT22;789;51.612;7.510;2023-02-15T13:44:09;19.30;1.00
1592;DHT22;789;51.612;7.510;2023-02-15T13:46:48;19.10;1.00
1592;DHT22;789;51.612;7.510;2023-02-15T13:49:30;19.00;1.00
1592;DHT22;789;51.612;7.510;2023-02-15T13:52:05;18.80;1.00
1592;DHT22;789;51.612;7.510;2023-02-15T13:57:48;18.30;1.00
1592;DHT22;789;51.612;7.510;2023-02-15T14:00:22;18.10;1.00
1592;DHT22;789;51.612;7.510;2023-02-15T14:03:10;17.70;1.00
1592;DHT22;789;51.612;7.510;2023-02-15T14:05:53;17.50;1.00
1592;DHT22;789;51.612;7.510;2023-02-15T14:08:36;17.50;1.00
1592;DHT22;789;51.612;7.510;2023-02-15T14:11:08;17.40;1.00
1592;DHT22;789;51.612;7.510;2023-02-15T14:13:58;17.10;1.00
1592;DHT22;789;51.612;7.510;2023-02-15T14:16:36;16.90;1.00
1592;DHT22;789;51.612;7.510;2023-02-15T14:19:21;16.80;1.00
1592;DHT22;789;51.612;7.510;2023-02-15T14:21:55;16.70;1.00
1592;DHT22;789;51.612;7.510;2023-02-15T14:24:30;16.50;1.00
1592;DHT22;789;51.612;7.510;2023-02-15T14:27:04;16.50;1.00
1592;DHT22;789;51.612;7.510;2023-02-15T14:29:48;16.50;1.00
1592;DHT22;789;51.612;7.510;2023-02-15T14:32:20;16.50;1.00
1592;DHT22;789;51.612;7.510;2023-02-15T14:34:52;16.60;1.00
1592;DHT22;789;51.612;7.510;2023-02-15T14:37:35;16.60;1.00
1592;DHT22;789;51.612;7.510;2023-02-15T14:40:10;16.60;1.00
1592;DHT22;789;51.612;7.510;2023-02-15T14:43:04;16.60;1.00
1592;DHT22;789;51.612;7.510;2023-02-15T14:45:38;16.50;1.00
1592;DHT22;789;51.612;7.510;2023-02-15T14:48:12;16.50;1.00
1592;DHT22;789;51.612;7.510;2023-02-15T14:50:44;16.40;1.00
1592;DHT22;789;51.612;7.510;2023-02-15T14:53:36;16.40;1.00
1592;DHT22;789;51.612;7.510;2023-02-15T14:56:25;16.30;1.00
1592;DHT22;789;51.612;7.510;2023-02-15T14:59:00;16.20;1.00
1592;DHT22;789;51.612;7.510;2023-02-15T15:01:30;16.20;1.00
1592;DHT22;789;51.612;7.510;2023-02-15T15:03:59;16.10;1.00
1592;DHT22;789;51.612;7.510;2023-02-15T15:06:28;16.10;1.00
1592;DHT22;789;51.612;7.510;2023-02-15T15:08:59;16.10;1.00
1592;DHT22;789;51.612;7.510;2023-02-15T15:11:42;16.00;1.00
1592;DHT22;789;51.612;7.510;2023-02-15T15:14:10;16.00;1.00
1592;DHT22;789;51.612;7.510;2023-02-15T15:16:57;15.90;1.00
1592;DHT22;789;51.612;7.510;2023-02-15T15:22:34;15.80;1.00
1592;DHT22;789;51.612;7.510;2023-02-15T15:25:01;15.70;1.00
1592;DHT22;789;51.612;7.510;2023-02-15T15:27:47;15.70;1.00
1592;DHT22;789;51.612;7.510;2023-02-15T15:40:33;15.60;1.00
1592;DHT22;789;51.612;7.510;2023-02-15T15:43:52;15.60;1.00
1592;DHT22;789;51.612;7.510;2023-02-15T15:46:34;15.50;1.00
1592;DHT22;789;51.612;7.510;2023-02-15T15:49:09;15.50;1.00
1592;DHT22;789;51.612;7.510;2023-02-15T15:51:39;15.50;1.00
1592;DHT22;789;51.612;7.510;2023-02-15T15:54:14;15.50;1.00
1592;DHT22;789;51.612;7.510;2023-02-15T15:56:46;15.40;1.00
1592;DHT22;789;51.612;7.510;2023-02-15T15:59:18;15.40;1.00
1592;DHT22;789;51.612;7.510;2023-02-15T16:01:46;15.40;1.00
1592;DHT22;789;51.612;7.510;2023-02-15T16:04:22;15.30;1.00
1592;DHT22;789;51.612;7.510;2023-02-15T16:06:50;15.30;1.00
1592;DHT22;789;51.612;7.510;2023-02-15T16:09:18;15.30;1.00
1592;DHT22;789;51.612;7.510;2023-02-15T16:11:48;15.20;1.00
1592;DHT22;789;51.612;7.510;2023-02-15T16:14:19;15.20;1.00
1592;DHT22;789;51.612;7.510;2023-02-15T16:16:52;15.10;1.00
1592;DHT22;789;51.612;7.510;2023-02-15T16:19:24;15.10;1.00
1592;DHT22;789;51.612;7.510;2023-02-15T16:21:54;15.00;1.00
1592;DHT22;789;51.612;7.510;2023-02-15T16:27:35;14.90;1.00
1592;DHT22;789;51.612;7.510;2023-02-15T16:30:33;14.80;1.00
1592;DHT22;789;51.612;7.510;2023-02-15T16:33:05;14.70;1.00
1592;DHT22;789;51.612;7.510;2023-02-15T16:35:32;14.60;1.00
1592;DHT22;789;51.612;7.510;2023-02-15T16:37:59;14.60;1.00
1592;DHT22;789;51.612;7.510;2023-02-15T16:40:35;14.50;1.00
1592;DHT22;789;51.612;7.510;2023-02-15T16:43:06;14.40;1.00
1592;DHT22;789;51.612;7.510;2023-02-15T16:45:34;14.40;1.00
1592;DHT22;789;51.612;7.510;2023-02-15T16:48:06;14.20;1.00
1592;DHT22;789;51.612;7.510;2023-02-15T16:50:36;14.00;1.00
1592;DHT22;789;51.612;7.510;2023-02-15T16:53:06;13.80;1.00
1592;DHT22;789;51.612;7.510;2023-02-15T16:55:35;13.70;1.00
1592;DHT22;789;51.612;7.510;2023-02-15T16:58:06;13.70;1.00
1592;DHT22;789;51.612;7.510;2023-02-15T17:00:36;13.50;1.00
1592;DHT22;789;51.612;7.510;2023-02-15T17:03:06;13.40;1.00
1592;DHT22;789;51.612;7.510;2023-02-15T17:05:40;13.40;1.00
1592;DHT22;789;51.612;7.510;2023-02-15T17:08:14;13.40;1.00
1592;DHT22;789;51.612;7.510;2023-02-15T17:10:44;13.30;1.00
1592;DHT22;789;51.612;7.510;2023-02-15T17:13:13;13.20;1.00
1592;DHT22;789;51.612;7.510;2023-02-15T17:15:42;13.20;1.00
1592;DHT22;789;51.612;7.510;2023-02-15T17:18:15;13.20;1.00
1592;DHT22;789;51.612;7.510;2023-02-15T17:20:43;13.20;1.00
1592;DHT22;789;51.612;7.510;2023-02-15T17:23:21;13.10;1.00
1592;DHT22;789;51.612;7.510;2023-02-15T17:25:49;13.10;1.00
1592;DHT22;789;51.612;7.510;2023-02-15T17:28:20;13.10;1.00
1592;DHT22;789;51.612;7.510;2023-02-15T17:30:49;13.00;1.00
1592;DHT22;789;51.612;7.510;2023-02-15T17:33:21;13.00;1.00
1592;DHT22;789;51.612;7.510;2023-02-15T17:36:06;13.00;1.00
1592;DHT22;789;51.612;7.510;2023-02-15T17:38:35;12.90;1.00
1592;DHT22;789;51.612;7.510;2023-02-15T17:41:02;12.90;1.00